Time;durP1;ratioP1;P1;durP2;ratioP2;P2;SDS_P1;SDS_P2;PMS_P1;PMS_P2;Temp;Humidity;BMP_temperature;BMP_pressure;BME280_temperature;BME280_humidity;BME280_pressure;Samples;Min_cycle;Max_cycle;Signal;HPM_P1;HPM_P2
2021/07/30 00:01:20;;;;;;;8.07;3.83;;;15.90;99.90;;;;;;5092450;28;20664;-65
2021/07/30 00:03:46;;;;;;;5.87;3.50;;;15.90;99.90;;;;;;5091917;28;20223;-66
2021/07/30 00:06:13;;;;;;;5.47;3.50;;;15.80;99.90;;;;;;5092343;28;20208;-63
2021/07/30 00:08:41;;;;;;;5.63;3.40;;;15.80;99.90;;;;;;5092344;28;20220;-65
2021/07/30 00:11:08;;;;;;;5.93;4.07;;;15.80;99.90;;;;;;5092432;28;20212;-65
2021/07/30 00:13:35;;;;;;;4.97;4.00;;;15.80;99.90;;;;;;5092084;28;20205;-65
2021/07/30 00:16:01;;;;;;;4.10;3.70;;;15.80;99.90;;;;;;5091890;28;20208;-65
2021/07/30 00:18:28;;;;;;;6.13;3.33;;;15.70;99.90;;;;;;5091630;28;20235;-65
2021/07/30 00:20:56;;;;;;;5.83;3.63;;;15.70;99.90;;;;;;5092002;28;20794;-65
2021/07/30 00:23:22;;;;;;;5.67;3.57;;;15.70;99.90;;;;;;5091857;28;20211;-65
2021/07/30 00:25:50;;;;;;;4.90;3.97;;;15.60;99.90;;;;;;5092083;28;20204;-64
2021/07/30 00:28:17;;;;;;;3.87;3.30;;;15.50;99.90;;;;;;5091827;28;20220;-64
2021/07/30 00:30:44;;;;;;;3.90;3.50;;;15.60;99.90;;;;;;5091834;28;20204;-65
2021/07/30 00:33:10;;;;;;;8.10;3.93;;;15.50;99.90;;;;;;5091994;28;20561;-64
2021/07/30 00:35:37;;;;;;;4.93;3.80;;;15.50;99.90;;;;;;5091677;28;20616;-65
2021/07/30 00:38:04;;;;;;;3.67;3.33;;;15.40;99.90;;;;;;5091722;28;20228;-65
2021/07/30 00:40:30;;;;;;;8.07;3.57;;;15.20;99.90;;;;;;5091539;28;20580;-65
2021/07/30 00:43:02;;;;;;;5.07;3.60;;;15.10;99.90;;;;;;5091547;28;20208;-65
2021/07/30 00:45:28;;;;;;;5.67;3.60;;;15.10;99.90;;;;;;5091229;28;20300;-65
2021/07/30 00:47:55;;;;;;;4.10;3.47;;;15.10;99.90;;;;;;5091485;28;20224;-65
2021/07/30 00:50:22;;;;;;;4.37;3.50;;;15.10;99.90;;;;;;5091603;28;20204;-65
2021/07/30 00:52:51;;;;;;;3.90;3.20;;;15.00;99.90;;;;;;5091503;28;20627;-65
2021/07/30 00:55:18;;;;;;;5.90;3.57;;;15.10;99.90;;;;;;5091322;28;20207;-65
2021/07/30 00:57:45;;;;;;;4.77;3.20;;;15.10;99.90;;;;;;5090931;28;20722;-65
2021/07/30 01:00:14;;;;;;;4.80;3.37;;;15.10;99.90;;;;;;5091641;28;20208;-65
2021/07/30 01:02:41;;;;;;;4.77;3.80;;;15.10;99.90;;;;;;5090858;28;20741;-65
2021/07/30 01:05:09;;;;;;;5.67;3.60;;;15.00;99.90;;;;;;5091258;28;20273;-65
2021/07/30 01:07:35;;;;;;;6.43;3.13;;;15.00;99.90;;;;;;5091257;28;20566;-65
2021/07/30 01:10:03;;;;;;;5.17;3.80;;;14.90;99.90;;;;;;5091172;28;20676;-65
2021/07/30 01:12:30;;;;;;;6.87;3.77;;;14.90;99.90;;;;;;5090980;28;20200;-65
2021/07/30 01:14:57;;;;;;;4.33;3.27;;;14.90;99.90;;;;;;5090982;28;20204;-64
2021/07/30 01:17:25;;;;;;;4.30;3.50;;;15.00;99.90;;;;;;5091045;28;20224;-64
2021/07/30 01:19:52;;;;;;;6.27;3.50;;;14.90;99.90;;;;;;5091008;28;20291;-64
2021/07/30 01:22:23;;;;;;;4.73;3.67;;;15.00;99.90;;;;;;5090951;28;20204;-64
2021/07/30 01:24:52;;;;;;;6.37;3.67;;;15.00;99.90;;;;;;5090796;28;20744;-64
2021/07/30 01:27:19;;;;;;;4.50;3.50;;;15.00;99.90;;;;;;5091007;28;20289;-64
2021/07/30 01:29:46;;;;;;;4.73;3.93;;;15.00;99.90;;;;;;5091059;28;20210;-64
2021/07/30 01:32:13;;;;;;;6.67;3.43;;;15.00;99.90;;;;;;5090988;28;20207;-65
2021/07/30 01:34:40;;;;;;;5.37;3.40;;;15.00;99.90;;;;;;5091027;28;20208;-64
2021/07/30 01:37:06;;;;;;;5.20;3.83;;;14.90;99.90;;;;;;5090667;28;20301;-64
2021/07/30 01:39:34;;;;;;;4.43;3.60;;;14.90;99.90;;;;;;5090839;28;20203;-64
2021/07/30 01:42:02;;;;;;;6.50;3.97;;;14.70;99.90;;;;;;5091336;28;20234;-64
2021/07/30 01:44:29;;;;;;;5.23;3.77;;;14.70;99.90;;;;;;5091291;28;20205;-64
2021/07/30 01:46:55;;;;;;;4.00;3.27;;;14.70;99.90;;;;;;5091062;28;20224;-64
2021/07/30 01:49:22;;;;;;;7.00;3.60;;;14.70;99.90;;;;;;5090719;28;20204;-65
2021/07/30 01:51:49;;;;;;;3.90;3.60;;;14.70;99.90;;;;;;5090915;28;20205;-64
2021/07/30 01:54:16;;;;;;;4.53;3.37;;;14.70;99.90;;;;;;5090546;28;20694;-64
2021/07/30 01:56:42;;;;;;;6.10;3.80;;;14.80;99.90;;;;;;5090920;28;20567;-64
2021/07/30 01:59:11;;;;;;;7.20;3.97;;;14.80;99.90;;;;;;5090986;28;20646;-64
2021/07/30 02:01:37;;;;;;;7.20;3.97;;;14.70;99.90;;;;;;5091430;28;20212;-64
2021/07/30 02:04:04;;;;;;;6.27;3.63;;;14.70;99.90;;;;;;5091640;28;20204;-64
2021/07/30 02:06:31;;;;;;;4.10;3.70;;;14.60;99.90;;;;;;5091098;28;20212;-64
2021/07/30 02:08:59;;;;;;;5.20;3.60;;;14.60;99.90;;;;;;5091798;28;20204;-64
2021/07/30 02:11:26;;;;;;;5.87;3.80;;;14.60;99.90;;;;;;5091308;28;20341;-64
2021/07/30 02:16:38;;;;;;;4.07;3.50;;;14.60;99.90;;;;;;5098966;28;20706;-65
2021/07/30 02:19:05;;;;;;;6.43;4.20;;;14.60;99.90;;;;;;5098453;28;20235;-64
2021/07/30 02:21:31;;;;;;;6.90;4.07;;;14.70;99.90;;;;;;5094857;28;20205;-64
2021/07/30 02:23:58;;;;;;;4.73;3.80;;;14.60;99.90;;;;;;5094301;28;20219;-64
2021/07/30 02:26:25;;;;;;;4.53;3.80;;;14.60;99.90;;;;;;5094168;28;20215;-64
2021/07/30 02:28:52;;;;;;;4.50;3.77;;;14.70;99.90;;;;;;5094021;28;20204;-64
2021/07/30 02:31:19;;;;;;;4.40;4.00;;;14.60;99.90;;;;;;5094114;28;20231;-64
2021/07/30 02:33:47;;;;;;;6.33;3.97;;;14.60;99.90;;;;;;5093718;28;20204;-64
2021/07/30 02:36:13;;;;;;;7.10;3.87;;;14.60;99.90;;;;;;5094083;28;20281;-64
2021/07/30 02:38:40;;;;;;;6.73;3.67;;;14.60;99.90;;;;;;5093444;28;20232;-64
2021/07/30 02:41:07;;;;;;;6.23;4.50;;;14.60;99.90;;;;;;5093912;28;20704;-64
2021/07/30 02:43:33;;;;;;;7.63;3.83;;;14.60;99.90;;;;;;5093754;28;20698;-64
2021/07/30 02:46:00;;;;;;;4.53;3.90;;;14.50;99.90;;;;;;5093985;28;20219;-64
2021/07/30 02:48:27;;;;;;;5.37;4.20;;;14.50;99.90;;;;;;5093515;28;20727;-64
2021/07/30 02:50:55;;;;;;;5.53;4.00;;;14.50;99.90;;;;;;5093820;28;20287;-64
2021/07/30 02:53:22;;;;;;;4.50;4.00;;;14.50;99.90;;;;;;5094066;28;20221;-64
2021/07/30 02:55:48;;;;;;;6.03;4.30;;;14.50;99.90;;;;;;5093573;28;20707;-64
2021/07/30 02:58:15;;;;;;;8.07;4.10;;;14.50;99.90;;;;;;5093359;28;20224;-64
2021/07/30 03:00:42;;;;;;;5.33;3.97;;;14.50;99.90;;;;;;5093625;28;20207;-64
2021/07/30 03:03:09;;;;;;;7.27;4.23;;;14.50;99.90;;;;;;5093967;28;20276;-64
2021/07/30 03:05:35;;;;;;;4.90;4.00;;;14.50;99.90;;;;;;5094010;28;20208;-64
2021/07/30 03:08:04;;;;;;;5.13;4.47;;;14.50;99.90;;;;;;5093493;28;20224;-64
2021/07/30 03:10:31;;;;;;;6.17;4.33;;;14.60;99.90;;;;;;5093393;28;20620;-65
2021/07/30 03:12:57;;;;;;;4.73;3.87;;;14.50;99.90;;;;;;5093410;28;20213;-65
2021/07/30 03:15:24;;;;;;;5.37;3.87;;;14.60;99.90;;;;;;5092889;28;20215;-65
2021/07/30 03:17:51;;;;;;;6.53;4.57;;;14.60;99.90;;;;;;5093288;28;20228;-65
2021/07/30 03:20:17;;;;;;;5.50;4.17;;;14.60;99.90;;;;;;5093242;28;20208;-65
2021/07/30 03:22:44;;;;;;;4.80;4.30;;;14.50;99.90;;;;;;5093248;28;20277;-65
2021/07/30 03:25:13;;;;;;;5.23;4.27;;;14.50;99.90;;;;;;5092306;28;20204;-65
2021/07/30 03:27:41;;;;;;;4.87;4.00;;;14.40;99.90;;;;;;5093015;28;20633;-65
2021/07/30 03:30:09;;;;;;;4.67;4.27;;;14.40;99.90;;;;;;5092683;28;20258;-65
2021/07/30 03:32:36;;;;;;;5.27;4.70;;;14.40;99.90;;;;;;5092723;28;20679;-65
2021/07/30 03:35:03;;;;;;;4.87;4.23;;;14.30;99.90;;;;;;5092831;28;20208;-65
2021/07/30 03:37:29;;;;;;;4.43;4.03;;;14.30;99.90;;;;;;5093179;28;20236;-65
2021/07/30 03:39:56;;;;;;;4.87;4.17;;;14.30;99.90;;;;;;5092809;28;20224;-66
2021/07/30 03:42:24;;;;;;;6.37;4.60;;;14.30;99.90;;;;;;5092454;28;20204;-65
2021/07/30 03:44:51;;;;;;;5.63;4.53;;;14.30;99.90;;;;;;5092658;28;20211;-64
2021/07/30 03:47:17;;;;;;;5.40;4.23;;;14.30;99.90;;;;;;5092672;28;20231;-64
2021/07/30 03:49:44;;;;;;;7.20;4.30;;;14.30;99.90;;;;;;5092490;28;20211;-66
2021/07/30 03:52:11;;;;;;;4.63;4.13;;;14.30;99.90;;;;;;5092578;28;20204;-65
2021/07/30 03:54:37;;;;;;;4.40;4.00;;;14.20;99.90;;;;;;5092298;28;20211;-65
2021/07/30 03:57:04;;;;;;;6.63;4.33;;;14.20;99.90;;;;;;5092268;28;20253;-67
2021/07/30 03:59:32;;;;;;;4.73;4.23;;;14.30;99.90;;;;;;5092377;28;20228;-65
2021/07/30 04:01:59;;;;;;;5.00;4.50;;;14.30;99.90;;;;;;5092412;28;20722;-66
2021/07/30 04:04:26;;;;;;;5.00;4.33;;;14.20;99.90;;;;;;5092338;28;20574;-65
2021/07/30 04:06:52;;;;;;;7.70;4.73;;;14.30;99.90;;;;;;5092301;28;20651;-65
2021/07/30 04:09:21;;;;;;;6.93;4.57;;;14.30;99.90;;;;;;5092065;28;20605;-65
2021/07/30 04:11:48;;;;;;;7.80;5.47;;;14.20;99.90;;;;;;5092229;28;20282;-65
2021/07/30 04:14:14;;;;;;;5.50;4.10;;;14.20;99.90;;;;;;5092215;28;20211;-67
2021/07/30 04:16:42;;;;;;;6.83;4.47;;;14.20;99.90;;;;;;5092203;28;20208;-67
2021/07/30 04:19:09;;;;;;;5.83;4.67;;;14.20;99.90;;;;;;5092121;28;20235;-67
2021/07/30 04:21:37;;;;;;;5.80;4.73;;;14.30;99.90;;;;;;5092314;28;20204;-64
2021/07/30 04:24:05;;;;;;;5.20;4.20;;;14.30;99.90;;;;;;5093694;28;20212;-65
2021/07/30 04:26:32;;;;;;;6.87;5.47;;;14.40;99.90;;;;;;5093930;28;20578;-65
2021/07/30 04:28:59;;;;;;;10.27;5.97;;;14.40;99.90;;;;;;5093875;28;20201;-66
2021/07/30 04:31:25;;;;;;;9.83;5.93;;;14.40;99.90;;;;;;5093881;28;20201;-66
2021/07/30 04:33:53;;;;;;;8.97;5.10;;;14.50;99.90;;;;;;5097540;28;20204;-63
2021/07/30 04:36:20;;;;;;;5.07;4.57;;;14.50;99.90;;;;;;5091363;28;20699;-64
2021/07/30 04:38:47;;;;;;;6.63;4.93;;;14.50;99.90;;;;;;5091216;28;20691;-66
2021/07/30 04:41:14;;;;;;;8.43;5.50;;;14.50;99.90;;;;;;5091865;28;20200;-64
2021/07/30 04:43:41;;;;;;;11.10;9.13;;;14.60;99.90;;;;;;5091881;28;20265;-65
2021/07/30 04:46:15;;;;;;;6.90;5.00;;;14.70;99.90;;;;;;5091669;28;20204;-64
2021/07/30 04:48:42;;;;;;;7.97;5.10;;;14.80;99.90;;;;;;5091549;28;20315;-65
2021/07/30 04:51:10;;;;;;;10.20;7.93;;;14.90;99.90;;;;;;5091483;28;20208;-67
2021/07/30 04:53:37;;;;;;;10.30;6.87;;;15.00;99.90;;;;;;5091704;28;20200;-65
2021/07/30 04:56:04;;;;;;;5.97;4.93;;;15.00;99.90;;;;;;5091564;28;20215;-65
2021/07/30 04:58:31;;;;;;;7.57;4.80;;;15.10;99.90;;;;;;5091291;28;20228;-67
2021/07/30 05:00:58;;;;;;;5.57;5.07;;;15.20;99.90;;;;;;5091350;28;20231;-65
2021/07/30 05:03:24;;;;;;;7.77;5.00;;;15.30;99.90;;;;;;5091084;28;20204;-64
2021/07/30 05:05:51;;;;;;;6.13;4.83;;;15.40;99.90;;;;;;5091091;28;20404;-66
2021/07/30 05:08:19;;;;;;;7.80;4.93;;;15.40;99.90;;;;;;5091452;28;20228;-65
2021/07/30 05:10:50;;;;;;;5.07;4.33;;;15.50;99.90;;;;;;5091464;28;20208;-65
2021/07/30 05:13:17;;;;;;;8.63;4.80;;;15.60;99.90;;;;;;5091197;28;20575;-64
2021/07/30 05:15:43;;;;;;;7.97;4.90;;;15.60;99.90;;;;;;5091153;28;20215;-67
2021/07/30 05:18:10;;;;;;;7.27;4.80;;;15.80;99.90;;;;;;5091047;28;20224;-65
2021/07/30 05:20:38;;;;;;;6.20;4.27;;;15.90;99.90;;;;;;5091094;28;20228;-65
2021/07/30 05:23:05;;;;;;;5.57;4.67;;;16.00;99.90;;;;;;5091265;28;20231;-64
2021/07/30 05:25:33;;;;;;;5.73;4.43;;;16.20;99.90;;;;;;5090835;28;20702;-67
2021/07/30 05:28:00;;;;;;;5.20;4.47;;;16.30;99.90;;;;;;5090743;28;20313;-65
2021/07/30 05:30:26;;;;;;;5.67;4.50;;;16.40;99.90;;;;;;5090945;28;20203;-65
2021/07/30 05:32:53;;;;;;;7.57;4.70;;;16.60;99.90;;;;;;5090768;28;20211;-65
2021/07/30 05:35:20;;;;;;;5.23;4.00;;;16.80;99.90;;;;;;5090567;28;20587;-65
2021/07/30 05:37:47;;;;;;;6.10;4.40;;;17.00;99.90;;;;;;5090733;28;20240;-68
2021/07/30 05:40:14;;;;;;;5.13;3.72;;;18.10;99.90;;;;;;5090695;28;20227;-65
2021/07/30 05:42:42;;;;;;;5.18;3.60;;;19.90;99.90;;;;;;5090810;28;20215;-66
2021/07/30 05:45:10;;;;;;;5.60;4.35;;;20.80;99.90;;;;;;5090520;28;20668;-64
2021/07/30 05:47:36;;;;;;;4.43;3.38;;;20.70;99.90;;;;;;5091012;28;20236;-64
2021/07/30 05:50:03;;;;;;;5.60;3.67;;;21.00;99.90;;;;;;5094526;28;20200;-66
2021/07/30 05:52:30;;;;;;;8.15;3.72;;;22.40;99.90;;;;;;5094626;28;20227;-67
2021/07/30 05:54:57;;;;;;;4.57;3.15;;;24.20;99.90;;;;;;5094641;28;20200;-64
2021/07/30 05:57:24;;;;;;;4.90;3.47;;;25.90;99.90;;;;;;5094582;28;20250;-65
2021/07/30 05:59:52;;;;;;;4.03;3.28;;;27.30;99.90;;;;;;5094267;28;20233;-65
2021/07/30 06:02:18;;;;;;;12.68;3.60;;;28.50;99.90;;;;;;5094683;28;20200;-65
2021/07/30 06:04:45;;;;;;;5.45;3.55;;;29.50;99.90;;;;;;5094551;28;20219;-65
2021/07/30 06:07:12;;;;;;;4.60;3.45;;;30.50;95.90;;;;;;5094338;28;20220;-67
2021/07/30 06:09:38;;;;;;;7.72;3.10;;;31.50;92.50;;;;;;5094107;28;20687;-67
2021/07/30 06:12:05;;;;;;;5.25;3.15;;;32.30;87.20;;;;;;5094364;28;20250;-65
2021/07/30 06:14:32;;;;;;;5.10;2.83;;;32.80;82.50;;;;;;5094042;28;20590;-67
2021/07/30 06:17:00;;;;;;;5.97;3.00;;;33.30;77.80;;;;;;5094289;28;20220;-66
2021/07/30 06:19:27;;;;;;;5.50;2.85;;;33.60;74.30;;;;;;5094503;28;20228;-66
2021/07/30 06:21:54;;;;;;;5.35;2.92;;;33.70;72.70;;;;;;5094416;28;20201;-65
2021/07/30 06:24:20;;;;;;;4.15;3.25;;;33.70;71.00;;;;;;5094325;28;20679;-65
2021/07/30 06:26:47;;;;;;;4.63;3.03;;;33.80;70.30;;;;;;5094228;28;20273;-66
2021/07/30 06:29:14;;;;;;;4.72;2.85;;;34.30;68.10;;;;;;5094008;28;20197;-66
2021/07/30 06:31:41;;;;;;;4.22;2.95;;;34.60;66.70;;;;;;5094096;28;20281;-65
2021/07/30 06:34:09;;;;;;;3.90;2.63;;;35.20;64.40;;;;;;5093905;28;20208;-66
2021/07/30 06:36:36;;;;;;;4.10;2.70;;;35.50;62.60;;;;;;5093891;28;20218;-64
2021/07/30 06:39:03;;;;;;;5.60;2.60;;;36.00;60.90;;;;;;5093744;28;20216;-66
2021/07/30 06:41:30;;;;;;;3.90;2.83;;;36.50;59.50;;;;;;5093834;28;20204;-65
2021/07/30 06:43:56;;;;;;;4.53;2.95;;;37.10;57.70;;;;;;5093567;28;20200;-64
2021/07/30 06:46:23;;;;;;;3.40;2.75;;;37.30;56.30;;;;;;5093749;28;20204;-66
2021/07/30 06:48:50;;;;;;;3.97;3.10;;;37.50;55.70;;;;;;5093788;28;20208;-65
2021/07/30 06:51:18;;;;;;;5.40;2.97;;;37.70;54.80;;;;;;5093545;28;20660;-64
2021/07/30 06:53:44;;;;;;;3.60;2.55;;;38.30;54.30;;;;;;5093359;28;20235;-66
2021/07/30 06:56:13;;;;;;;4.03;2.88;;;38.90;52.60;;;;;;5093664;28;20208;-67
2021/07/30 06:58:40;;;;;;;5.32;2.55;;;39.40;51.10;;;;;;5093236;28;20691;-66
2021/07/30 07:01:07;;;;;;;3.72;2.72;;;39.80;50.00;;;;;;5092600;28;20224;-65
2021/07/30 07:03:34;;;;;;;4.65;2.88;;;39.80;49.50;;;;;;5092962;28;20200;-65
2021/07/30 07:06:01;;;;;;;3.92;2.88;;;39.70;49.30;;;;;;5093421;28;20588;-66
2021/07/30 07:08:29;;;;;;;2.97;2.53;;;39.60;48.70;;;;;;5093137;28;20224;-65
2021/07/30 07:10:55;;;;;;;4.53;2.47;;;39.60;48.90;;;;;;5093178;28;20215;-67
2021/07/30 07:13:22;;;;;;;2.90;2.50;;;39.80;48.10;;;;;;5093347;28;20216;-65
2021/07/30 07:15:49;;;;;;;4.53;3.00;;;39.90;47.90;;;;;;5093161;28;20682;-66
2021/07/30 07:18:16;;;;;;;2.67;2.35;;;39.90;47.80;;;;;;5093368;28;20224;-68
2021/07/30 07:20:42;;;;;;;5.22;2.65;;;40.20;47.10;;;;;;5093019;28;20228;-64
2021/07/30 07:23:09;;;;;;;3.08;2.50;;;40.50;46.60;;;;;;5092803;28;20204;-65
2021/07/30 07:25:38;;;;;;;3.38;2.50;;;40.60;46.60;;;;;;5092622;28;20576;-67
2021/07/30 07:28:05;;;;;;;5.65;2.45;;;41.00;46.10;;;;;;5092922;28;20236;-65
2021/07/30 07:30:31;;;;;;;7.03;2.65;;;41.50;44.80;;;;;;5092965;28;20212;-65
2021/07/30 07:32:58;;;;;;;2.97;2.42;;;41.90;44.30;;;;;;5092686;28;20209;-65
2021/07/30 07:35:25;;;;;;;5.00;3.00;;;42.20;43.70;;;;;;5092796;28;20208;-65
2021/07/30 07:37:52;;;;;;;4.40;2.53;;;42.50;43.20;;;;;;5092505;28;20231;-65
2021/07/30 07:40:18;;;;;;;7.20;2.50;;;42.80;42.60;;;;;;5092746;28;20224;-65
2021/07/30 07:42:46;;;;;;;5.97;3.28;;;43.10;41.40;;;;;;5092939;28;20207;-65
2021/07/30 07:45:13;;;;;;;4.78;2.83;;;43.00;41.30;;;;;;5092600;28;20196;-65
2021/07/30 07:47:40;;;;;;;3.97;3.50;;;43.20;41.10;;;;;;5092518;28;20224;-62
2021/07/30 07:50:07;;;;;;;4.82;4.32;;;43.30;41.90;;;;;;5092669;28;20615;-63
2021/07/30 07:52:35;;;;;;;2.92;2.63;;;43.20;41.10;;;;;;5092232;28;20203;-63
2021/07/30 07:55:03;;;;;;;3.33;2.60;;;43.30;40.40;;;;;;5092528;28;20218;-66
2021/07/30 07:57:29;;;;;;;6.60;3.10;;;43.30;40.60;;;;;;5092386;28;20729;-62
2021/07/30 07:59:58;;;;;;;3.50;2.80;;;43.60;40.30;;;;;;5092205;28;20223;-63
2021/07/30 08:02:24;;;;;;;3.78;2.50;;;43.80;39.30;;;;;;5092189;28;20695;-63
2021/07/30 08:04:51;;;;;;;3.88;2.53;;;44.00;38.40;;;;;;5092096;28;20729;-63
2021/07/30 08:07:18;;;;;;;3.65;2.60;;;43.60;38.80;;;;;;5092041;28;20772;-63
2021/07/30 08:09:45;;;;;;;3.08;2.65;;;43.60;38.90;;;;;;5092196;28;20290;-62
2021/07/30 08:12:12;;;;;;;2.78;2.58;;;43.60;38.70;;;;;;5092028;28;20714;-63
2021/07/30 08:14:39;;;;;;;3.45;2.55;;;43.70;38.30;;;;;;5092152;28;20276;-64
2021/07/30 08:17:07;;;;;;;4.40;2.97;;;43.40;38.50;;;;;;5092041;28;20261;-63
2021/07/30 08:19:34;;;;;;;3.00;2.70;;;42.90;38.70;;;;;;5092499;28;20227;-63
2021/07/30 08:22:01;;;;;;;4.43;2.70;;;42.80;38.30;;;;;;5092583;28;20235;-64
2021/07/30 08:24:28;;;;;;;6.47;3.55;;;42.90;38.30;;;;;;5092130;28;20204;-64
2021/07/30 08:26:54;;;;;;;5.10;2.80;;;42.70;38.70;;;;;;5092013;28;20230;-61
2021/07/30 08:29:21;;;;;;;3.42;2.60;;;42.60;39.10;;;;;;5077778;28;20216;-66
2021/07/30 08:31:48;;;;;;;4.20;2.90;;;42.60;39.30;;;;;;5071514;28;20667;-66
2021/07/30 08:34:16;;;;;;;4.50;3.00;;;42.90;39.00;;;;;;5071442;28;20213;-64
2021/07/30 08:36:43;;;;;;;4.65;2.53;;;43.00;38.90;;;;;;5071354;28;20596;-64
2021/07/30 08:39:10;;;;;;;3.67;2.85;;;42.80;39.20;;;;;;5071289;28;20231;-65
2021/07/30 08:41:37;;;;;;;4.70;3.17;;;42.30;39.60;;;;;;5071460;28;20227;-64
2021/07/30 08:44:04;;;;;;;5.18;3.20;;;41.60;40.40;;;;;;5071221;28;20208;-64
2021/07/30 08:46:31;;;;;;;7.47;3.10;;;40.60;41.30;;;;;;5071292;28;20216;-64
2021/07/30 08:48:58;;;;;;;4.75;2.95;;;39.20;42.70;;;;;;5071109;28;20665;-64
2021/07/30 08:51:32;;;;;;;6.18;3.10;;;37.60;45.50;;;;;;5071365;28;20251;-63
2021/07/30 08:53:59;;;;;;;4.78;3.10;;;36.20;46.80;;;;;;5071183;28;20211;-63
2021/07/30 08:56:26;;;;;;;4.10;3.70;;;34.90;48.90;;;;;;5071156;28;20255;-63
2021/07/30 08:58:52;;;;;;;7.15;4.40;;;33.80;50.80;;;;;;5071007;28;20212;-63
2021/07/30 09:01:19;;;;;;;5.65;3.88;;;32.80;51.60;;;;;;5070931;28;20283;-63
2021/07/30 09:03:47;;;;;;;5.60;3.55;;;31.80;54.00;;;;;;5070679;28;20204;-63
2021/07/30 09:06:17;;;;;;;8.32;3.80;;;31.20;54.90;;;;;;5071221;28;20200;-64
2021/07/30 09:08:45;;;;;;;5.35;3.80;;;30.70;56.30;;;;;;5070878;28;20228;-63
2021/07/30 09:11:27;;;;;;;5.95;3.22;;;30.30;57.10;;;;;;5070933;28;20205;-63
2021/07/30 09:13:54;;;;;;;4.95;3.70;;;30.00;57.80;;;;;;5070895;28;20378;-63
2021/07/30 09:16:20;;;;;;;7.32;3.67;;;29.60;59.00;;;;;;5070955;28;20201;-63
2021/07/30 09:18:47;;;;;;;4.47;3.60;;;29.40;59.30;;;;;;5070952;28;20358;-64
2021/07/30 09:21:28;;;;;;;3.80;3.30;;;29.10;60.40;;;;;;5070698;28;20731;-63
2021/07/30 09:23:58;;;;;;;4.28;3.58;;;28.80;61.60;;;;;;5070390;28;20295;-63
2021/07/30 09:26:29;;;;;;;5.47;3.70;;;28.70;61.60;;;;;;5070839;28;20223;-63
2021/07/30 09:28:57;;;;;;;4.20;3.80;;;28.60;62.50;;;;;;5071076;28;20205;-64
2021/07/30 09:31:34;;;;;;;5.95;3.17;;;28.60;62.70;;;;;;5070843;28;20197;-63
2021/07/30 09:34:11;;;;;;;4.32;3.83;;;28.40;64.60;;;;;;5070701;28;20212;-64
2021/07/30 09:36:45;;;;;;;9.38;3.90;;;27.90;65.80;;;;;;5070236;28;20209;-63
2021/07/30 09:39:13;;;;;;;5.38;3.80;;;27.80;66.90;;;;;;5071444;28;20215;-63
2021/07/30 09:41:39;;;;;;;6.82;4.25;;;27.80;66.10;;;;;;5070903;28;20293;-64
2021/07/30 09:44:07;;;;;;;5.60;3.85;;;27.70;67.30;;;;;;5071057;28;20646;-64
2021/07/30 09:46:35;;;;;;;4.43;3.95;;;27.70;67.60;;;;;;5070698;28;20326;-64
2021/07/30 09:49:01;;;;;;;8.32;3.85;;;27.80;67.70;;;;;;5070550;28;20258;-63
2021/07/30 09:51:28;;;;;;;5.63;4.20;;;27.90;68.00;;;;;;5070648;28;20200;-63
2021/07/30 09:53:55;;;;;;;5.18;4.53;;;27.80;68.60;;;;;;5070307;28;20669;-63
2021/07/30 09:56:24;;;;;;;4.85;4.00;;;27.90;69.20;;;;;;5070639;28;20262;-64
2021/07/30 09:58:57;;;;;;;4.80;4.13;;;28.00;69.30;;;;;;5070553;28;20216;-65
2021/07/30 10:01:25;;;;;;;4.97;4.30;;;28.20;69.60;;;;;;5070440;28;20583;-64
2021/07/30 10:03:53;;;;;;;7.00;4.18;;;28.30;69.90;;;;;;5070616;28;20561;-64
2021/07/30 10:06:20;;;;;;;6.82;4.20;;;28.30;70.00;;;;;;5070713;28;20205;-65
2021/07/30 10:08:47;;;;;;;7.45;4.00;;;28.40;70.20;;;;;;5070445;28;20232;-64
2021/07/30 10:11:14;;;;;;;9.10;4.30;;;28.50;70.50;;;;;;5070205;28;20624;-65
2021/07/30 10:13:48;;;;;;;5.18;3.78;;;28.70;69.60;;;;;;5070287;28;20211;-65
2021/07/30 10:16:16;;;;;;;5.55;4.05;;;28.80;68.70;;;;;;5069986;28;20209;-64
2021/07/30 10:18:44;;;;;;;6.55;4.50;;;28.90;68.20;;;;;;5067409;28;20941;-61
2021/07/30 10:21:15;;;;;;;5.18;4.05;;;28.90;68.40;;;;;;5069961;28;20750;-66
2021/07/30 10:23:44;;;;;;;7.63;4.45;;;29.00;67.60;;;;;;5069882;28;20293;-65
2021/07/30 10:26:12;;;;;;;3.97;3.58;;;29.10;67.80;;;;;;5070267;28;20205;-65
2021/07/30 10:28:39;;;;;;;6.10;4.22;;;29.10;67.80;;;;;;5069571;28;20229;-64
2021/07/30 10:31:10;;;;;;;4.40;3.90;;;29.00;68.00;;;;;;5070250;28;20205;-65
2021/07/30 10:33:48;;;;;;;8.50;4.75;;;28.80;68.10;;;;;;5070074;28;20205;-65
2021/07/30 10:36:33;;;;;;;5.13;4.00;;;28.70;69.30;;;;;;5072680;28;20208;-64
2021/07/30 10:39:11;;;;;;;6.07;4.32;;;28.70;68.50;;;;;;5073372;28;20267;-64
2021/07/30 10:41:40;;;;;;;5.57;4.57;;;28.80;68.00;;;;;;5073799;28;20321;-66
2021/07/30 10:44:08;;;;;;;4.25;3.83;;;29.00;68.00;;;;;;5073434;28;20205;-65
2021/07/30 10:46:36;;;;;;;5.15;4.10;;;29.20;66.80;;;;;;5073758;28;20209;-64
2021/07/30 10:49:42;;;;;;;4.38;3.97;;;29.40;66.00;;;;;;5073786;28;20656;-62
2021/07/30 10:52:30;;;;;;;5.32;3.90;;;29.90;65.00;;;;;;5073675;28;20204;-62
2021/07/30 10:54:57;;;;;;;5.15;3.78;;;30.40;63.60;;;;;;5073217;28;20209;-64
2021/07/30 10:57:49;;;;;;;5.47;4.10;;;30.80;63.30;;;;;;5071852;28;20663;-66
2021/07/30 11:00:17;;;;;;;6.47;4.18;;;31.10;61.70;;;;;;5073772;28;20205;-63
2021/07/30 11:03:05;;;;;;;7.05;4.63;;;31.20;61.40;;;;;;5074000;28;20387;-64
2021/07/30 11:05:47;;;;;;;4.75;4.07;;;31.30;62.10;;;;;;5073406;28;20381;-64
2021/07/30 11:08:14;;;;;;;6.10;4.40;;;31.40;61.70;;;;;;5071925;28;20622;-64
2021/07/30 11:10:42;;;;;;;7.55;4.70;;;31.50;61.50;;;;;;5072917;28;20209;-62
2021/07/30 11:13:13;;;;;;;8.52;7.57;;;31.40;62.20;;;;;;5073620;28;20235;-66
2021/07/30 11:15:40;;;;;;;5.57;4.22;;;31.30;62.30;;;;;;5073083;28;20225;-63
2021/07/30 11:18:15;;;;;;;4.57;3.88;;;31.30;62.50;;;;;;5074770;28;20221;-63
2021/07/30 11:20:42;;;;;;;5.85;4.00;;;31.30;62.70;;;;;;5073225;28;20228;-62
2021/07/30 11:23:10;;;;;;;11.23;4.10;;;31.30;62.70;;;;;;5073728;28;20208;-61
2021/07/30 11:25:38;;;;;;;5.45;4.07;;;31.40;62.40;;;;;;5074135;28;20205;-62
2021/07/30 11:28:06;;;;;;;6.47;3.80;;;31.30;63.10;;;;;;5073497;28;20251;-60
2021/07/30 11:30:33;;;;;;;5.13;4.28;;;31.30;63.60;;;;;;5073875;28;20207;-61
2021/07/30 11:33:00;;;;;;;4.90;4.50;;;31.50;61.50;;;;;;5074309;28;20201;-61
2021/07/30 11:35:40;;;;;;;5.35;4.15;;;31.50;62.20;;;;;;5074659;28;20209;-62
2021/07/30 11:38:07;;;;;;;6.60;4.60;;;31.30;62.10;;;;;;5073805;28;20260;-61
2021/07/30 11:40:34;;;;;;;5.22;4.32;;;31.20;62.80;;;;;;5075183;28;20209;-62
2021/07/30 11:43:08;;;;;;;7.85;4.32;;;31.10;63.00;;;;;;5075852;28;20213;-60
2021/07/30 11:45:37;;;;;;;4.70;3.95;;;30.90;63.40;;;;;;5075155;28;20205;-60
2021/07/30 11:48:11;;;;;;;4.57;4.10;;;30.80;64.00;;;;;;5075114;28;20255;-61
2021/07/30 11:50:40;;;;;;;5.45;4.50;;;30.70;63.70;;;;;;5075640;28;20231;-59
2021/07/30 11:53:08;;;;;;;9.55;4.90;;;30.70;64.40;;;;;;5073020;28;20239;-59
2021/07/30 11:55:36;;;;;;;4.53;3.85;;;30.70;63.50;;;;;;5072192;28;20201;-60
2021/07/30 11:58:11;;;;;;;5.85;4.35;;;30.60;64.40;;;;;;5071950;28;20312;-60
2021/07/30 12:00:38;;;;;;;6.00;4.00;;;30.50;64.40;;;;;;5072078;28;20251;-60
2021/07/30 12:03:17;;;;;;;5.80;4.90;;;30.50;64.80;;;;;;5072039;28;20208;-60
2021/07/30 12:05:47;;;;;;;4.75;4.05;;;30.60;64.40;;;;;;5071968;28;20228;-60
2021/07/30 12:08:15;;;;;;;4.70;4.03;;;30.70;64.40;;;;;;5072269;28;20316;-60
2021/07/30 12:10:42;;;;;;;5.90;3.92;;;30.90;63.80;;;;;;5071860;28;20209;-60
2021/07/30 12:13:10;;;;;;;4.65;3.88;;;30.90;64.60;;;;;;5072148;28;20266;-60
2021/07/30 12:15:37;;;;;;;7.30;3.97;;;30.80;64.40;;;;;;5072185;28;20232;-58
2021/07/30 12:18:05;;;;;;;7.53;3.97;;;30.60;64.90;;;;;;5071648;28;20248;-59
2021/07/30 12:20:32;;;;;;;4.68;3.88;;;30.50;65.50;;;;;;5071446;28;20208;-60
2021/07/30 12:23:05;;;;;;;4.53;3.90;;;30.50;64.80;;;;;;5071826;28;20205;-60
2021/07/30 12:25:37;;;;;;;4.07;3.67;;;30.50;64.80;;;;;;5071406;28;20189;-60
2021/07/30 12:28:09;;;;;;;5.43;4.40;;;30.60;65.30;;;;;;5071330;28;20716;-60
2021/07/30 12:30:36;;;;;;;6.05;3.90;;;30.60;65.30;;;;;;5071767;28;20565;-60
2021/07/30 12:33:21;;;;;;;5.10;3.97;;;30.60;65.30;;;;;;5071625;28;20223;-60
2021/07/30 12:35:47;;;;;;;4.50;4.07;;;30.70;65.40;;;;;;5071660;28;20213;-59
2021/07/30 12:38:16;;;;;;;6.10;5.45;;;30.70;65.80;;;;;;5071388;28;20270;-59
2021/07/30 12:40:44;;;;;;;4.78;3.83;;;30.70;65.90;;;;;;5071288;28;20214;-59
2021/07/30 12:43:16;;;;;;;6.25;4.35;;;30.70;66.10;;;;;;5071429;28;20609;-60
2021/07/30 12:45:44;;;;;;;11.63;10.38;;;30.80;66.10;;;;;;5071303;28;20257;-60
2021/07/30 12:48:17;;;;;;;4.18;3.78;;;31.20;65.40;;;;;;5070983;28;20221;-60
2021/07/30 12:50:44;;;;;;;4.95;4.35;;;31.70;64.80;;;;;;5071114;28;20625;-60
2021/07/30 12:53:13;;;;;;;8.48;4.00;;;32.00;63.90;;;;;;5071351;28;20284;-60